DW7160 La Colilla ES current weather conditions

sailwx.info

Wind from 209 at 6 knots gusting 10

Air temperature 16.1° C
Dewpoint 1.8° C

Last reported at 2020-Feb-28 14:00 UTC.
Time now 2020-Feb-28 14:18 UTC

Location: N 40°39' W 004°46'.
View on Google Maps.

See reports from other nearby stations

  
Tides and Currents Weather Stations Pressure Air Temp Water Temp Dewpoint Dewpoint Depression Visibility Wind Speed Wind Dir Waves Ship Positions
date/time (UTC)wind fromknots sea level pressurealtimeterstation pressurevisibilityair tempwater tempwave heightnotes
2020-Feb-28 14:00 209 6 gusting 10 16.1
2020-Feb-28 13:50 204 6 gusting 11 16.7
2020-Feb-28 13:40 202 2 gusting 6 17.2
2020-Feb-28 13:30 208 2 gusting 6 17.8
2020-Feb-28 13:20 248 0 gusting 3 17.8
2020-Feb-28 13:10 250 1 gusting 4 17.8
2020-Feb-28 13:00 206 1 gusting 4 17.2
2020-Feb-28 12:50 210 1 gusting 4 17.2
2020-Feb-28 12:40 215 1 gusting 5 16.7
2020-Feb-28 12:30 234 1 gusting 4 16.7
2020-Feb-28 12:20 258 0 gusting 4 16.7
2020-Feb-28 12:10 208 0 gusting 3 16.7
2020-Feb-28 12:00 196 0 gusting 3 16.1
2020-Feb-28 11:50 197 1 gusting 3 15.6
2020-Feb-28 11:40 191 3 gusting 6 15.0
2020-Feb-28 11:30 188 3 gusting 5 15.6
2020-Feb-28 11:20 187 2 gusting 5 15.0
2020-Feb-28 11:10 190 2 gusting 5 14.4
2020-Feb-28 11:00 191 3 gusting 6 13.9
2020-Feb-28 10:50 194 3 gusting 6 13.3
2020-Feb-28 10:40 195 3 gusting 6 12.8
2020-Feb-28 10:30 195 3 gusting 6 12.2
2020-Feb-28 10:20 194 3 gusting 6 11.7
2020-Feb-28 10:10 196 3 gusting 6 11.1
2020-Feb-28 10:00 203 2 gusting 5 10.6
2020-Feb-28 09:50 193 1 gusting 3 8.9
2020-Feb-28 09:40 182 0 gusting 2 8.3
2020-Feb-28 09:30 182 0 gusting 2 7.8
2020-Feb-28 09:20 182 7.8
2020-Feb-28 09:10 182 0 gusting 2 6.7
2020-Feb-28 09:00 182 0 gusting 2 6.1
2020-Feb-28 08:50 182 5.6
2020-Feb-28 08:40 182 5.0
2020-Feb-28 08:30 182 4.4
2020-Feb-28 08:20 182 4.4
2020-Feb-28 08:10 4.4
2020-Feb-28 08:00 182 4.4
2020-Feb-28 07:50 182 0 gusting 2 4.4
2020-Feb-28 07:40 182 0 gusting 2 3.9
2020-Feb-28 07:30 3.9
2020-Feb-28 07:20 182 0 gusting 1 3.3
2020-Feb-28 07:10 182 3.3
2020-Feb-28 07:00 182 3.9
2020-Feb-28 06:50 182 1 gusting 3 3.9
2020-Feb-28 06:40 182 0 gusting 3 4.4
2020-Feb-28 06:20 182 1 gusting 4 4.4
2020-Feb-28 06:10 211 0 gusting 5 5.6
2020-Feb-28 06:00 5.0
2020-Feb-28 05:50 213 5.0
2020-Feb-28 05:40 213 0 gusting 3 5.0
2020-Feb-28 05:30 213 4.4
2020-Feb-28 05:20 4.4
2020-Feb-28 05:10 213 4.4
2020-Feb-28 05:00 213 0 gusting 2 4.4
2020-Feb-28 04:50 221 0 gusting 3 6.1
2020-Feb-28 04:40 227 6.1
2020-Feb-28 04:30 6.1
2020-Feb-28 04:20 227 6.1
2020-Feb-28 04:10 220 0 gusting 2 5.6
2020-Feb-28 04:00 213 5.0
2020-Feb-28 03:50 5.0
2020-Feb-28 03:40 213 5.0
2020-Feb-28 03:30 213 0 gusting 1 5.0
2020-Feb-28 03:20 213 0 gusting 2 5.6
2020-Feb-28 03:10 213 0 gusting 2 5.0
2020-Feb-28 03:00 4.4
2020-Feb-28 02:50 213 5.0
2020-Feb-28 02:40 213 0 gusting 2 5.6
2020-Feb-28 02:30 213 6.1
2020-Feb-28 02:20 213 1 gusting 3 6.7
2020-Feb-28 02:10 213 0 gusting 2 6.1
2020-Feb-28 02:00 215 1 gusting 4 6.7
2020-Feb-28 01:50 214 1 gusting 4 6.7
2020-Feb-28 01:40 208 2 gusting 4 6.7
2020-Feb-28 01:30 214 3 gusting 5 6.7
2020-Feb-28 01:20 215 3 gusting 5 6.1
2020-Feb-28 01:10 208 1 gusting 4 6.1
2020-Feb-28 01:00 214 3 gusting 5 6.1
2020-Feb-28 00:50 208 1 gusting 4 6.7
2020-Feb-28 00:40 221 3 gusting 6 7.2
2020-Feb-28 00:30 226 2 gusting 6 7.2
2020-Feb-28 00:20 229 3 gusting 6 7.8
2020-Feb-28 00:10 224 3 gusting 5 7.8
2020-Feb-28 00:00 218 3 gusting 7 7.8
2020-Feb-27 23:50 214 4 gusting 7 7.2
2020-Feb-27 23:40 211 5 gusting 8 7.8
2020-Feb-27 23:30 213 4 gusting 7 7.8
2020-Feb-27 23:20 259 2 gusting 7 8.3
2020-Feb-27 23:10 262 2 gusting 8 8.3
2020-Feb-27 23:00 263 1 gusting 6 8.3
2020-Feb-27 22:50 268 2 gusting 5 8.3
2020-Feb-27 22:40 265 2 gusting 7 8.3
2020-Feb-27 22:30 283 2 gusting 6 8.3
2020-Feb-27 22:20 295 2 gusting 7 8.3
2020-Feb-27 22:10 297 2 gusting 6 8.3
2020-Feb-27 22:00 289 2 gusting 6 8.3
2020-Feb-27 21:50 266 2 gusting 7 8.3
2020-Feb-27 21:40 279 2 gusting 7 8.9
2020-Feb-27 21:30 264 2 gusting 6 8.9
2020-Feb-27 21:20 240 3 gusting 8 8.9
2020-Feb-27 21:10 241 3 gusting 8 8.9
2020-Feb-27 21:00 229 3 gusting 7 8.9
2020-Feb-27 20:50 217 2 gusting 6 8.3
2020-Feb-27 20:40 220 2 gusting 7 8.9
2020-Feb-27 20:30 215 3 gusting 6 8.9
2020-Feb-27 20:20 226 3 gusting 6 8.9
2020-Feb-27 20:10 252 2 gusting 6 8.9
2020-Feb-27 20:00 264 2 gusting 6 8.9
2020-Feb-27 19:50 260 2 gusting 6 9.4
2020-Feb-27 19:40 263 2 gusting 6 9.4
2020-Feb-27 19:30 255 2 gusting 8 9.4
2020-Feb-27 19:20 243 2 gusting 6 9.4
2020-Feb-27 19:10 237 3 gusting 6 9.4
2020-Feb-27 19:00 232 2 gusting 5 9.4
2020-Feb-27 18:50 218 3 gusting 6 9.4
2020-Feb-27 18:40 223 3 gusting 6 10.0
2020-Feb-27 18:30 228 2 gusting 5 10.0
2020-Feb-27 18:20 234 2 gusting 6 10.0
2020-Feb-27 18:10 240 2 gusting 6 10.0
2020-Feb-27 18:00 266 1 gusting 6 10.6
2020-Feb-27 17:50 266 1 gusting 7 10.6
2020-Feb-27 17:40 264 3 gusting 9 11.1
2020-Feb-27 17:30 258 3 gusting 10 11.1
2020-Feb-27 17:20 279 3 gusting 8 11.7
2020-Feb-27 17:10 283 2 gusting 10 11.7
2020-Feb-27 17:00 287 3 gusting 7 12.2
2020-Feb-27 16:50 292 2 gusting 8 12.2
2020-Feb-27 16:40 269 2 gusting 6 12.8
2020-Feb-27 16:30 293 3 gusting 9 12.8
2020-Feb-27 16:20 292 3 gusting 7 13.3
2020-Feb-27 16:10 290 2 gusting 7 13.3
2020-Feb-27 16:00 296 3 gusting 7 13.3
2020-Feb-27 15:50 307 2 gusting 10 13.3
2020-Feb-27 15:40 296 3 gusting 6 13.3
2020-Feb-27 15:30 309 2 gusting 7 13.3
2020-Feb-27 15:20 281 4 gusting 8 13.9
2020-Feb-27 15:10 303 3 gusting 9 13.9
2020-Feb-27 15:00 303 3 gusting 12 13.9
2020-Feb-27 14:50 314 3 gusting 13 13.9
2020-Feb-27 14:40 284 3 gusting 7 14.4
2020-Feb-27 14:30 319 4 gusting 12 13.9
2020-Feb-27 14:20 292 3 gusting 10 14.4
2020-Feb-27 14:10 301 3 gusting 10 14.4
2020-Feb-27 14:00 290 3 gusting 10 14.4
2020-Feb-27 13:50 265 3 gusting 8 15.0
2020-Feb-27 13:40 278 3 gusting 8 15.0
2020-Feb-27 13:30 268 3 gusting 8 14.4
2020-Feb-27 13:20 273 3 gusting 7 14.4
2020-Feb-27 13:10 280 3 gusting 9 14.4
2020-Feb-27 13:00 286 3 gusting 9 14.4
2020-Feb-27 12:50 291 3 gusting 8 14.4
2020-Feb-27 12:40 292 2 gusting 7 13.9
2020-Feb-27 12:30 294 3 gusting 10 13.9
2020-Feb-27 12:20 284 3 gusting 8 13.9
2020-Feb-27 12:10 271 3 gusting 8 13.9
2020-Feb-27 12:00 255 3 gusting 9 13.3
2020-Feb-27 11:50 256 3 gusting 11 13.3
2020-Feb-27 11:40 268 3 gusting 8 12.8
2020-Feb-27 11:30 273 2 gusting 8 12.8
2020-Feb-27 11:20 244 3 gusting 10 12.2
2020-Feb-27 11:10 239 4 gusting 11 12.2
2020-Feb-27 11:00 236 5 gusting 11 11.7
2020-Feb-27 10:50 243 3 gusting 10 11.7
2020-Feb-27 10:40 239 4 gusting 13 11.7
2020-Feb-27 10:30 236 4 gusting 12 11.7
2020-Feb-27 10:20 228 3 gusting 12 11.1
2020-Feb-27 10:10 260 3 gusting 8 10.6
2020-Feb-27 10:00 236 4 gusting 10 10.6
2020-Feb-27 09:50 237 2 gusting 7 10.6
2020-Feb-27 09:40 214 4 gusting 10 10.0
2020-Feb-27 09:30 220 4 gusting 8 8.9
2020-Feb-27 09:20 207 4 gusting 9 7.8
2020-Feb-27 09:10 206 3 gusting 8 7.2
2020-Feb-27 09:00 206 3 gusting 6 6.7
2020-Feb-27 08:50 195 3 gusting 7 5.6
2020-Feb-27 08:40 206 3 gusting 7 5.6
2020-Feb-27 08:30 201 5 gusting 10 5.6
2020-Feb-27 08:20 207 6 gusting 10 5.0
2020-Feb-27 08:10 207 8 gusting 14 4.4
2020-Feb-27 08:00 206 7 gusting 12 4.4
2020-Feb-27 07:50 201 6 gusting 12 4.4
2020-Feb-27 07:40 204 6 gusting 11 3.9
2020-Feb-27 07:30 203 6 gusting 9 3.9
2020-Feb-27 07:20 206 6 gusting 12 3.9
2020-Feb-27 07:10 210 6 gusting 10 3.3
2020-Feb-27 07:00 208 6 gusting 11 3.9
2020-Feb-27 06:50 209 6 gusting 13 3.9
2020-Feb-27 06:40 210 6 gusting 12 3.9
2020-Feb-27 06:30 209 6 gusting 11 4.4
2020-Feb-27 06:20 211 7 gusting 12 4.4
2020-Feb-27 06:10 205 6 gusting 13 4.4
2020-Feb-27 06:00 212 5 gusting 7 4.4
2020-Feb-27 05:50 211 6 gusting 10 4.4
2020-Feb-27 05:40 211 5 gusting 9 4.4
2020-Feb-27 05:30 211 5 gusting 11 4.4
2020-Feb-27 05:20 211 4 gusting 6 4.4
2020-Feb-27 05:10 214 3 gusting 6 4.4
2020-Feb-27 05:00 211 5 gusting 7 4.4
2020-Feb-27 04:50 210 5 gusting 10 4.4
2020-Feb-27 04:40 210 4 gusting 7 4.4
2020-Feb-27 04:30 210 3 gusting 6 4.4
2020-Feb-27 04:20 215 3 gusting 5 4.4
2020-Feb-27 04:10 216 3 gusting 6 4.4
2020-Feb-27 04:00 213 3 gusting 6 4.4
2020-Feb-27 03:50 212 4 gusting 7 4.4
2020-Feb-27 03:40 213 5 gusting 9 4.4
2020-Feb-27 03:30 212 3 gusting 7 3.9
2020-Feb-27 03:20 215 3 gusting 6 4.4
2020-Feb-27 03:10 213 4 gusting 6 4.4
2020-Feb-27 03:00 216 4 gusting 7 4.4
2020-Feb-27 02:50 213 4 gusting 6 3.9
2020-Feb-27 02:40 210 4 gusting 6 3.9
2020-Feb-27 02:30 211 4 gusting 6 3.9
2020-Feb-27 02:20 215 3 gusting 6 3.9
2020-Feb-27 02:10 211 3 gusting 7 4.4
2020-Feb-27 02:00 218 4 gusting 9 4.4
2020-Feb-27 01:50 216 4 gusting 7 3.9
2020-Feb-27 01:40 214 4 gusting 6 3.9
2020-Feb-27 01:30 211 4 gusting 6 3.9
2020-Feb-27 01:20 211 4 gusting 6 3.9
2020-Feb-27 01:10 223 3 gusting 6 3.9
2020-Feb-27 01:00 211 4 gusting 6 4.4
2020-Feb-27 00:50 226 4 gusting 8 5.0
2020-Feb-27 00:40 248 3 gusting 9 5.0
2020-Feb-27 00:30 236 4 gusting 10 4.4
2020-Feb-27 00:20 210 5 gusting 7 4.4
2020-Feb-27 00:10 211 5 gusting 8 4.4
2020-Feb-27 00:00 212 5 gusting 8 4.4
2020-Feb-26 23:50 218 5 gusting 10 4.4
2020-Feb-26 23:40 226 4 gusting 9 4.4
2020-Feb-26 23:30 212 4 gusting 8 4.4
2020-Feb-26 23:20 221 4 gusting 9 4.4
2020-Feb-26 23:10 221 3 gusting 6 4.4
2020-Feb-26 23:00 237 2 gusting 6 4.4
2020-Feb-26 22:50 250 2 gusting 6 4.4
2020-Feb-26 22:40 261 2 gusting 6 4.4
2020-Feb-26 22:30 251 2 gusting 6 4.4
2020-Feb-26 22:20 257 3 gusting 8 4.4
2020-Feb-26 22:10 257 3 gusting 7 5.0
2020-Feb-26 22:00 260 3 gusting 7 4.4
2020-Feb-26 21:50 260 1 gusting 5 4.4
2020-Feb-26 21:40 264 1 gusting 4 5.0
2020-Feb-26 21:30 249 1 gusting 6 5.0
2020-Feb-26 21:20 259 1 gusting 6 5.0
2020-Feb-26 21:10 212 2 gusting 6 5.0
2020-Feb-26 21:00 222 2 gusting 5 5.0
2020-Feb-26 20:50 226 3 gusting 6 5.6
2020-Feb-26 20:40 264 0 gusting 6 5.6
2020-Feb-26 20:30 233 1 gusting 5 5.6
2020-Feb-26 20:20 214 2 gusting 8 5.6
2020-Feb-26 20:10 215 3 gusting 6 5.6
2020-Feb-26 20:00 217 2 gusting 6 5.6
2020-Feb-26 19:50 217 1 gusting 4 5.6
2020-Feb-26 19:40 217 1 gusting 4 5.6
2020-Feb-26 19:30 217 2 gusting 6 6.1
2020-Feb-26 19:20 224 1 gusting 6 6.1
2020-Feb-26 19:10 241 0 gusting 4 6.7
2020-Feb-26 19:00 241 1 gusting 4 6.7
2020-Feb-26 18:50 230 1 gusting 4 6.7
2020-Feb-26 18:40 248 0 gusting 5 6.7
2020-Feb-26 18:30 254 0 gusting 2 6.7
2020-Feb-26 18:20 253 0 gusting 2 6.7
2020-Feb-26 18:10 265 0 gusting 2 7.2
2020-Feb-26 18:00 319 0 gusting 4 7.2
2020-Feb-26 17:50 277 0 gusting 5 7.2
2020-Feb-26 17:40 308 0 gusting 5 7.8
2020-Feb-26 17:30 316 2 gusting 6 7.8
2020-Feb-26 17:20 289 1 gusting 5 8.3
2020-Feb-26 17:10 308 1 gusting 6 8.9
2020-Feb-26 17:00 302 2 gusting 6 9.4
2020-Feb-26 16:50 298 1 gusting 6 9.4
2020-Feb-26 16:40 308 1 gusting 6 9.4
2020-Feb-26 16:30 316 2 gusting 6 9.4
2020-Feb-26 16:20 309 2 gusting 6 10.0
2020-Feb-26 16:10 306 2 gusting 6 10.0
2020-Feb-26 16:00 300 2 gusting 6 10.0
2020-Feb-26 15:50 309 2 gusting 6 10.0
2020-Feb-26 15:40 312 2 gusting 6 10.6
2020-Feb-26 15:30 282 2 gusting 8 10.6
2020-Feb-26 15:20 301 2 gusting 6 10.6
2020-Feb-26 15:10 309 2 gusting 6 10.6
2020-Feb-26 15:00 319 3 gusting 7 10.0
2020-Feb-26 14:50 319 2 gusting 8 10.6
2020-Feb-26 14:40 323 2 gusting 6 10.6
2020-Feb-26 14:30 324 2 gusting 6 10.0
2020-Feb-26 14:20 335 3 gusting 6 10.0
2020-Feb-26 14:10 331 3 gusting 8 10.0
2020-Feb-26 14:00 350 4 gusting 9 10.0